KCPU

Calaveras Co-Maury Rasmussen Field Airport

San Andreas, California, USA
METAR KCPU 180815Z AUTO 12003KT 10SM CLR 05/00 A3014 RMK AO2 T00450003
Observed Flight Rules
Dec-18 @ 08:15 UTC (23 minutes ago) Visual Flight Rules
Wind Visibility Clouds
120° at 3 knots 10 miles
  • Clear skies
Temperatures Readings
Current 5°C / 41°F
Dewpoint 0°C / 32°F
Humidity 70%
Altimeter 30.14" Hg
Pressure 1021 hPa
Elevation 404
METAR KCPU 180815Z AUTO 12003KT 10SM CLR 05/00 A3014 RMK AO2 T00450003
Observed Flight Rules
Dec-18 @ 08:15 UTC
(23 minutes ago)
VFR
Wind Visibility
120° at 3 knots 10 miles
Clouds
  • Clear skies
Temperature Dewpoint
5°C / 41°F 0°C / 32°F
Humidity Altimeter Pressure
70% 30.14" Hg 1021 hPa